createdAt,value
2019-05-21T00:01:46.582Z,94350.32
2019-05-21T00:04:27.844Z,94355.86
2019-05-21T00:06:48.982Z,94357.41
2019-05-21T00:09:19.639Z,94352.15
2019-05-21T00:11:49.964Z,94352.67
2019-05-21T00:14:20.310Z,94348.42
2019-05-21T00:16:51.023Z,94344.88
2019-05-21T00:19:21.615Z,94346.11
2019-05-21T00:21:51.926Z,94347.38
2019-05-21T00:24:22.720Z,94347.57
2019-05-21T00:26:53.414Z,94345.23
2019-05-21T00:29:59.562Z,94350.45
2019-05-21T00:33:05.783Z,94352.30
2019-05-21T00:36:12.030Z,94356.06
2019-05-21T00:39:19.992Z,94359.23
2019-05-21T00:42:02.632Z,94372.77
2019-05-21T00:44:39.684Z,94367.47
2019-05-21T00:47:11.725Z,94365.12
2019-05-21T00:49:42.442Z,94362.70
2019-05-21T00:52:12.774Z,94360.75
2019-05-21T00:54:43.383Z,94358.09
2019-05-21T00:57:13.764Z,94374.08
2019-05-21T00:59:44.060Z,94376.53
2019-05-21T01:02:14.503Z,94375.86
2019-05-21T01:04:59.556Z,94379.09
2019-05-21T01:07:17.279Z,94371.89
2019-05-21T01:09:47.985Z,94373.64
2019-05-21T01:12:18.432Z,94376.47
2019-05-21T01:14:49.052Z,94375.26
2019-05-21T01:17:19.789Z,94366.02
2019-05-21T01:19:50.189Z,94365.14
2019-05-21T01:22:20.782Z,94354.53
2019-05-21T01:24:51.460Z,94356.52
2019-05-21T01:27:22.865Z,94346.42
2019-05-21T01:29:53.180Z,94356.47
2019-05-21T01:32:23.918Z,94361.69
2019-05-21T01:34:54.214Z,94351.05
2019-05-21T01:37:24.558Z,94342.83
2019-05-21T01:39:55.228Z,94345.23
2019-05-21T01:42:25.706Z,94345.39
2019-05-21T01:44:56.198Z,94338.59
2019-05-21T01:47:26.559Z,94337.64
2019-05-21T01:49:56.885Z,94334.60
2019-05-21T01:52:27.588Z,94339.42
2019-05-21T01:54:57.995Z,94324.89
2019-05-21T01:57:28.280Z,94335.50
2019-05-21T01:59:59.002Z,94339.70
2019-05-21T02:02:29.577Z,94343.89
2019-05-21T02:04:59.870Z,94335.98
2019-05-21T02:07:30.619Z,94346.73
2019-05-21T02:10:01.547Z,94338.50
2019-05-21T02:12:32.050Z,94342.03
2019-05-21T02:15:02.383Z,94349.50
2019-05-21T02:17:32.720Z,94345.20
2019-05-21T02:20:03.518Z,94349.94
2019-05-21T02:22:34.098Z,94351.64
2019-05-21T02:25:04.971Z,94348.00
2019-05-21T02:27:35.682Z,94348.69
2019-05-21T02:30:09.491Z,94345.81
2019-05-21T02:32:39.876Z,94347.56
2019-05-21T02:35:11.152Z,94341.33
2019-05-21T02:37:41.748Z,94347.30
2019-05-21T02:40:12.948Z,94362.91
2019-05-21T02:42:43.393Z,94367.58
2019-05-21T02:45:14.177Z,94367.38
2019-05-21T02:47:44.892Z,94372.08
2019-05-21T02:50:15.942Z,94369.62
2019-05-21T02:52:46.267Z,94376.83
2019-05-21T02:55:17.211Z,94382.57
2019-05-21T02:57:48.718Z,94387.41
2019-05-21T03:00:50.484Z,94391.00
2019-05-21T03:03:23.976Z,94392.23
2019-05-21T03:06:12.306Z,94393.00
2019-05-21T03:08:26.703Z,94398.27
2019-05-21T03:10:57.028Z,94394.73
2019-05-21T03:13:27.860Z,94400.09
2019-05-21T03:15:58.160Z,94401.17
2019-05-21T03:18:28.495Z,94404.94
2019-05-21T03:20:59.115Z,94402.09
2019-05-21T03:23:29.588Z,94411.09
2019-05-21T03:25:59.927Z,94410.66
2019-05-21T03:28:30.298Z,94410.58
2019-05-21T03:31:00.773Z,94404.34
2019-05-21T03:33:31.045Z,94410.71
2019-05-21T03:36:01.902Z,94412.95
2019-05-21T03:38:32.638Z,94416.73
2019-05-21T03:41:02.938Z,94418.12
2019-05-21T03:43:33.382Z,94413.47
2019-05-21T03:46:04.182Z,94415.64
2019-05-21T03:48:34.537Z,94424.84
2019-05-21T03:51:05.453Z,94426.47
2019-05-21T03:53:35.785Z,94424.19
2019-05-21T03:56:06.666Z,94424.09
2019-05-21T03:58:37.123Z,94433.09
2019-05-21T04:01:07.411Z,94433.46
2019-05-21T04:03:38.022Z,94434.58
2019-05-21T04:06:08.776Z,94440.64
2019-05-21T04:08:39.118Z,94443.00
2019-05-21T04:11:09.448Z,94444.50
2019-05-21T04:13:40.218Z,94443.59
2019-05-21T04:16:38.217Z,94442.53
2019-05-21T04:19:12.219Z,94438.17
2019-05-21T04:21:43.025Z,94442.02
2019-05-21T04:24:13.396Z,94440.62
2019-05-21T04:26:43.818Z,94437.19
2019-05-21T04:29:14.123Z,94436.67
2019-05-21T04:31:44.584Z,94428.93
2019-05-21T04:34:15.261Z,94436.29
2019-05-21T04:36:45.616Z,94441.52
2019-05-21T04:39:16.019Z,94437.39
2019-05-21T04:41:46.727Z,94435.53
2019-05-21T04:44:17.310Z,94444.44
2019-05-21T04:46:47.834Z,94445.03
2019-05-21T04:49:18.533Z,94450.30
2019-05-21T04:51:49.286Z,94454.31
2019-05-21T04:54:19.672Z,94455.18
2019-05-21T04:56:50.031Z,94444.48
2019-05-21T04:59:20.332Z,94458.33
2019-05-21T05:01:51.003Z,94462.81
2019-05-21T05:04:22.308Z,94457.38
2019-05-21T05:06:53.000Z,94451.62
2019-05-21T05:09:23.675Z,94458.48
2019-05-21T05:11:54.238Z,94458.99
2019-05-21T05:14:24.539Z,94454.30
2019-05-21T05:16:55.366Z,94450.66
2019-05-21T05:19:26.079Z,94452.75
2019-05-21T05:21:56.423Z,94453.27
2019-05-21T05:24:26.829Z,94448.01
2019-05-21T05:26:57.152Z,94453.78
2019-05-21T05:29:27.913Z,94449.83
2019-05-21T05:31:58.592Z,94445.59
2019-05-21T05:34:28.929Z,94443.77
2019-05-21T05:36:59.669Z,94456.12
2019-05-21T05:39:30.187Z,94451.65
2019-05-21T05:42:00.537Z,94451.91
2019-05-21T05:44:31.153Z,94449.24
2019-05-21T05:47:01.791Z,94448.17
2019-05-21T05:49:37.324Z,94449.72
2019-05-21T05:52:07.703Z,94452.30
2019-05-21T05:54:39.064Z,94447.73
2019-05-21T05:57:09.412Z,94444.25
2019-05-21T05:59:40.264Z,94454.50
2019-05-21T06:02:10.676Z,94446.36
2019-05-21T06:04:41.110Z,94454.64
2019-05-21T06:07:11.803Z,94448.86
2019-05-21T06:09:42.153Z,94452.95
2019-05-21T06:12:12.732Z,94450.77
2019-05-21T06:14:43.398Z,94448.84
2019-05-21T06:17:13.862Z,94453.28
2019-05-21T06:19:44.174Z,94445.54
2019-05-21T06:22:14.771Z,94450.91
2019-05-21T06:24:45.415Z,94443.14
2019-05-21T06:27:15.854Z,94453.98
2019-05-21T06:29:46.544Z,94451.63
2019-05-21T06:32:16.884Z,94451.83
2019-05-21T06:34:48.768Z,94446.17
2019-05-21T06:37:19.274Z,94451.44
2019-05-21T06:39:49.579Z,94441.97
2019-05-21T06:42:20.279Z,94447.34
2019-05-21T06:44:50.842Z,94447.94
2019-05-21T06:47:21.199Z,94443.50
2019-05-21T06:49:51.828Z,94446.98
2019-05-21T06:52:22.278Z,94442.47
2019-05-21T06:54:52.581Z,94440.66
2019-05-21T06:57:23.162Z,94445.60
2019-05-21T06:59:53.878Z,94440.74
2019-05-21T07:02:24.256Z,94438.12
2019-05-21T07:04:54.774Z,94203.44
2019-05-21T07:07:25.303Z,94441.73
2019-05-21T07:09:56.069Z,94441.79
2019-05-21T07:12:28.441Z,94442.02
2019-05-21T07:14:58.791Z,94431.80
2019-05-21T07:17:29.348Z,94434.73
2019-05-21T07:20:00.136Z,94426.85
2019-05-21T07:22:30.492Z,94433.55
2019-05-21T07:25:01.283Z,94430.92
2019-05-21T07:27:33.097Z,94421.37
2019-05-21T07:30:03.419Z,94416.98
2019-05-21T07:32:34.898Z,94426.05
2019-05-21T07:35:06.178Z,94426.05
2019-05-21T07:37:36.532Z,94408.52
2019-05-21T07:40:07.790Z,94427.18
2019-05-21T07:42:38.447Z,94420.57
2019-05-21T07:45:09.689Z,94409.91
2019-05-21T07:47:40.087Z,94409.12
2019-05-21T07:50:10.791Z,94409.12
2019-05-21T07:52:41.168Z,94419.52
2019-05-21T07:55:11.807Z,94419.52
2019-05-21T07:57:42.418Z,94420.59
2019-05-21T08:00:13.410Z,94410.60
2019-05-21T08:02:43.703Z,94414.53
2019-05-21T08:05:14.359Z,94420.50
2019-05-21T08:07:44.665Z,94424.64
2019-05-21T08:10:15.606Z,94396.31
2019-05-21T08:12:46.316Z,94404.72
2019-05-21T08:15:16.830Z,94425.55
2019-05-21T08:17:47.574Z,94425.55
2019-05-21T08:20:18.572Z,94420.18
2019-05-21T08:22:48.875Z,94430.81
2019-05-21T08:25:19.256Z,94423.48
2019-05-21T08:27:49.781Z,94406.49
2019-05-21T08:30:20.433Z,94417.17
2019-05-21T08:32:50.809Z,94415.36
2019-05-21T08:35:21.622Z,94403.29
2019-05-21T08:37:51.924Z,94416.94
2019-05-21T08:40:22.655Z,94416.78
2019-05-21T08:42:52.964Z,94412.97
2019-05-21T08:45:23.748Z,94409.95
2019-05-21T08:47:54.456Z,94408.36
2019-05-21T08:50:24.786Z,94409.92
2019-05-21T08:52:55.082Z,94391.28
2019-05-21T08:55:25.525Z,94412.90
2019-05-21T09:00:28.303Z,94403.16
2019-05-21T09:02:59.302Z,94397.05
2019-05-21T09:03:13.779Z,94410.05
2019-05-21T09:05:29.819Z,94393.29
2019-05-21T09:08:00.216Z,94406.15
2019-05-21T09:10:30.956Z,94391.79
2019-05-21T09:13:01.266Z,94393.11
2019-05-21T09:15:31.971Z,94407.65
2019-05-21T09:18:02.309Z,94389.90
2019-05-21T09:20:32.964Z,94385.20
2019-05-21T09:23:03.490Z,94399.58
2019-05-21T09:25:34.204Z,94419.42
2019-05-21T09:28:04.564Z,94395.45
2019-05-21T09:30:35.345Z,94411.63
2019-05-21T09:33:05.973Z,94401.75
2019-05-21T09:35:36.347Z,94391.61
2019-05-21T09:38:06.890Z,94386.41
2019-05-21T09:40:37.837Z,94397.08
2019-05-21T09:43:08.326Z,94395.73
2019-05-21T09:45:39.104Z,94389.91
2019-05-21T09:48:09.597Z,94391.53
2019-05-21T09:50:40.252Z,94385.14
2019-05-21T09:53:10.646Z,94381.00
2019-05-21T09:55:41.008Z,94376.23
2019-05-21T09:58:28.869Z,94360.14
2019-05-21T10:01:18.500Z,94324.92
2019-05-21T10:03:52.354Z,94347.89
2019-05-21T10:06:22.922Z,94360.38
2019-05-21T10:08:53.544Z,94365.18
2019-05-21T10:11:23.900Z,94357.92
2019-05-21T10:13:54.311Z,94357.77
2019-05-21T10:16:24.874Z,94359.09
2019-05-21T10:18:55.605Z,94328.44
2019-05-21T10:21:26.209Z,94356.14
2019-05-21T10:23:56.495Z,94338.82
2019-05-21T10:26:27.085Z,94356.33
2019-05-21T10:28:57.891Z,94347.78
2019-05-21T10:31:28.173Z,94348.88
2019-05-21T10:33:58.551Z,94341.39
2019-05-21T10:36:28.988Z,94349.22
2019-05-21T10:38:59.297Z,94360.55
2019-05-21T10:41:29.636Z,94336.55
2019-05-21T10:44:00.263Z,94346.80
2019-05-21T10:46:30.783Z,94345.72
2019-05-21T10:49:01.585Z,94350.95
2019-05-21T10:51:31.870Z,94343.13
2019-05-21T10:54:02.338Z,94329.55
2019-05-21T10:56:46.786Z,94347.23
2019-05-21T10:59:05.289Z,94351.56
2019-05-21T11:01:57.679Z,94366.68
2019-05-21T11:04:47.310Z,94352.31
2019-05-21T11:07:19.214Z,94365.72
2019-05-21T11:09:49.574Z,94340.75
2019-05-21T11:12:20.308Z,94366.04
2019-05-21T11:14:50.997Z,94389.14
2019-05-21T11:17:21.568Z,94369.87
2019-05-21T11:19:52.007Z,94379.87
2019-05-21T11:22:22.387Z,94374.09
2019-05-21T11:24:52.948Z,94381.48
2019-05-21T11:27:23.874Z,94361.72
2019-05-21T11:29:54.213Z,94359.91
2019-05-21T11:32:25.017Z,94363.16
2019-05-21T11:34:55.998Z,94387.96
2019-05-21T11:37:26.318Z,94387.59
2019-05-21T11:39:57.145Z,94402.56
2019-05-21T11:42:27.739Z,94419.91
2019-05-21T11:44:58.085Z,94418.73
2019-05-21T11:47:28.594Z,94428.22
2019-05-21T11:49:59.162Z,94430.52
2019-05-21T11:52:29.460Z,94426.48
2019-05-21T11:54:59.877Z,94418.86
2019-05-21T11:57:30.261Z,94425.62
2019-05-21T12:00:00.602Z,94422.56
2019-05-21T12:02:30.912Z,94429.94
2019-05-21T12:05:01.656Z,94434.41
2019-05-21T12:07:32.035Z,94430.08
2019-05-21T12:10:02.376Z,94418.03
2019-05-21T12:12:33.073Z,94433.88
2019-05-21T12:15:03.893Z,94433.88
2019-05-21T12:17:34.182Z,94414.56
2019-05-21T12:20:05.467Z,94410.58
2019-05-21T12:22:35.874Z,94410.33
2019-05-21T12:25:06.900Z,94413.00
2019-05-21T12:27:37.283Z,94412.90
2019-05-21T12:30:08.337Z,94414.61
2019-05-21T12:32:40.250Z,94419.39
2019-05-21T12:35:11.359Z,94416.18
2019-05-21T12:37:41.763Z,94406.66
2019-05-21T12:40:13.316Z,94419.47
2019-05-21T12:42:44.079Z,94419.34
2019-05-21T12:45:14.689Z,94420.61
2019-05-21T12:47:45.071Z,94414.50
2019-05-21T12:50:16.040Z,94408.28
2019-05-21T12:52:46.327Z,94413.25
2019-05-21T12:55:16.976Z,94411.81
2019-05-21T12:57:47.507Z,94404.14
2019-05-21T13:00:19.436Z,94393.55
2019-05-21T13:02:50.010Z,94382.39
2019-05-21T13:05:20.352Z,94390.59
2019-05-21T13:07:51.922Z,94395.53
2019-05-21T13:10:22.759Z,94409.63
2019-05-21T13:12:53.077Z,94407.33
2019-05-21T13:15:23.495Z,94409.37
2019-05-21T13:17:54.076Z,94403.72
2019-05-21T13:20:24.521Z,94423.55
2019-05-21T13:22:54.901Z,94411.78
2019-05-21T13:25:25.953Z,94427.17
2019-05-21T13:27:57.690Z,94433.98
2019-05-21T13:30:28.833Z,94442.61
2019-05-21T13:32:59.079Z,94424.77
2019-05-21T13:35:29.570Z,94406.63
2019-05-21T13:38:00.472Z,94404.08
2019-05-21T13:40:32.550Z,94409.09
2019-05-21T13:43:02.946Z,94397.96
2019-05-21T13:45:34.507Z,94381.20
2019-05-21T13:48:05.055Z,94375.10
2019-05-21T13:50:35.338Z,94381.58
2019-05-21T13:53:06.189Z,94381.09
2019-05-21T13:55:36.840Z,94387.17
2019-05-21T13:58:07.377Z,94394.05
2019-05-21T14:00:42.434Z,94412.23
2019-05-21T14:03:13.285Z,94431.16
2019-05-21T14:05:44.160Z,94443.91
2019-05-21T14:08:14.752Z,94436.45
2019-05-21T14:10:45.159Z,94402.89
2019-05-21T14:13:15.882Z,94403.62
2019-05-21T14:15:47.252Z,94403.61
2019-05-21T14:18:17.588Z,94399.18
2019-05-21T14:20:47.989Z,94397.90
2019-05-21T14:23:18.782Z,94391.73
2019-05-21T14:25:49.082Z,94398.09
2019-05-21T14:28:20.000Z,94398.66
2019-05-21T14:30:50.800Z,94407.79
2019-05-21T14:33:21.183Z,94400.63
2019-05-21T14:35:51.732Z,94404.20
2019-05-21T14:38:22.036Z,94406.38
2019-05-21T14:40:52.835Z,94396.30
2019-05-21T14:43:23.572Z,94399.98
2019-05-21T14:45:53.962Z,94391.81
2019-05-21T14:48:24.445Z,94395.62
2019-05-21T14:50:54.863Z,94385.83
2019-05-21T14:53:25.158Z,94388.17
2019-05-21T14:55:55.485Z,94385.20
2019-05-21T14:58:26.131Z,94386.89
2019-05-21T15:00:56.477Z,94378.81
2019-05-21T15:03:29.508Z,94378.33
2019-05-21T15:05:59.267Z,94385.80
2019-05-21T15:08:29.678Z,94382.66
2019-05-21T15:11:01.354Z,94371.22
2019-05-21T15:13:31.646Z,94365.78
2019-05-21T15:16:01.981Z,94373.33
2019-05-21T15:18:32.434Z,94367.47
2019-05-21T15:21:10.954Z,94374.83
2019-05-21T15:23:42.032Z,94367.66
2019-05-21T15:26:13.411Z,94389.39
2019-05-21T15:28:44.822Z,94401.62
2019-05-21T15:31:15.249Z,94401.28
2019-05-21T15:33:45.979Z,94410.13
2019-05-21T15:36:16.460Z,94434.71
2019-05-21T15:38:50.502Z,94412.91
2019-05-21T15:41:18.988Z,94449.51
2019-05-21T15:43:49.336Z,94466.60
2019-05-21T15:46:20.130Z,94441.45
2019-05-21T15:48:50.810Z,94425.39
2019-05-21T15:51:21.296Z,94404.29
2019-05-21T15:53:51.939Z,94411.30
2019-05-21T15:56:22.828Z,94412.56
2019-05-21T15:58:54.094Z,94415.56
2019-05-21T16:01:24.844Z,94420.09
2019-05-21T16:03:55.767Z,94430.73
2019-05-21T16:06:26.160Z,94430.73
2019-05-21T16:08:57.844Z,94441.58
2019-05-21T16:11:29.366Z,94441.58
2019-05-21T16:13:59.802Z,94431.97
2019-05-21T16:16:30.111Z,94431.97
2019-05-21T16:19:00.558Z,94442.74
2019-05-21T16:21:30.867Z,94431.38
2019-05-21T16:24:01.432Z,94439.00
2019-05-21T16:26:32.076Z,94423.09
2019-05-21T16:29:02.608Z,94424.75
2019-05-21T16:31:32.940Z,94423.33
2019-05-21T16:34:03.739Z,94438.59
2019-05-21T16:36:34.506Z,94433.75
2019-05-21T16:39:07.366Z,94429.84
2019-05-21T16:41:44.640Z,94429.19
2019-05-21T16:44:10.170Z,94429.09
2019-05-21T16:46:42.535Z,94422.30
2019-05-21T16:49:12.772Z,94435.95
2019-05-21T16:51:43.654Z,94443.19
2019-05-21T16:54:14.742Z,94443.84
2019-05-21T16:56:45.409Z,94453.98
2019-05-21T16:59:15.832Z,94444.59
2019-05-21T17:01:46.384Z,94448.25
2019-05-21T17:04:16.953Z,94451.64
2019-05-21T17:06:47.271Z,94448.62
2019-05-21T17:09:17.775Z,94456.95
2019-05-21T17:11:59.591Z,94457.02
2019-05-21T17:14:20.546Z,94453.88
2019-05-21T17:16:50.985Z,94457.79
2019-05-21T17:19:21.320Z,94458.31
2019-05-21T17:21:52.037Z,94210.22
2019-05-21T17:24:22.699Z,94458.86
2019-05-21T17:26:53.091Z,94459.13
2019-05-21T17:29:23.883Z,94461.80
2019-05-21T17:31:54.672Z,94219.24
2019-05-21T17:34:25.293Z,94467.48
2019-05-21T17:36:55.608Z,94460.16
2019-05-21T17:39:26.502Z,94458.70
2019-05-21T17:41:56.789Z,94453.86
2019-05-21T17:44:27.252Z,94453.38
2019-05-21T17:46:58.052Z,94453.38
2019-05-21T17:49:28.591Z,94453.05
2019-05-21T17:51:59.429Z,94459.75
2019-05-21T17:54:29.925Z,94451.78
2019-05-21T17:57:00.275Z,94459.16
2019-05-21T17:59:32.208Z,94459.16
2019-05-21T18:02:04.439Z,94191.31
2019-05-21T18:04:34.768Z,94453.23
2019-05-21T18:07:07.900Z,94460.00
2019-05-21T18:09:38.611Z,94457.16
2019-05-21T18:12:10.954Z,94459.56
2019-05-21T18:14:42.196Z,94458.92
2019-05-21T18:17:16.190Z,94465.88
2019-05-21T18:19:49.239Z,94462.47
2019-05-21T18:22:22.104Z,94470.60
2019-05-21T18:24:53.379Z,94480.86
2019-05-21T18:27:24.230Z,94484.20
2019-05-21T18:29:56.726Z,94477.77
2019-05-21T18:32:27.698Z,94480.63
2019-05-21T18:34:58.094Z,94483.32
2019-05-21T18:37:28.771Z,94482.73
2019-05-21T18:39:59.687Z,94490.65
2019-05-21T18:42:30.274Z,94490.31
2019-05-21T18:45:00.675Z,94500.11
2019-05-21T18:47:31.369Z,94494.56
2019-05-21T18:50:01.853Z,94504.66
2019-05-21T18:52:32.791Z,94514.45
2019-05-21T18:55:03.132Z,94517.95
2019-05-21T18:57:33.582Z,94520.61
2019-05-21T19:00:04.271Z,94522.19
2019-05-21T19:02:34.843Z,94523.48
2019-05-21T19:05:05.818Z,94526.34
2019-05-21T19:07:37.088Z,94521.36
2019-05-21T19:10:07.837Z,94524.55
2019-05-21T19:12:40.064Z,94522.97
2019-05-21T19:15:11.678Z,94526.13
2019-05-21T19:17:42.080Z,94529.78
2019-05-21T19:20:13.784Z,94535.80
2019-05-21T19:22:44.678Z,94542.11
2019-05-21T19:25:16.414Z,94540.78
2019-05-21T19:27:47.182Z,94537.41
2019-05-21T19:30:17.778Z,94542.36
2019-05-21T19:32:48.345Z,94549.20
2019-05-21T19:35:19.094Z,94545.80
2019-05-21T19:37:49.629Z,94552.37
2019-05-21T19:40:20.163Z,94554.99
2019-05-21T19:42:54.957Z,94548.15
2019-05-21T19:45:22.848Z,94559.70
2019-05-21T19:47:53.226Z,94558.71
2019-05-21T19:50:24.966Z,94571.04
2019-05-21T19:52:55.575Z,94572.58
2019-05-21T19:55:27.482Z,94572.83
2019-05-21T19:57:58.084Z,94570.45
2019-05-21T20:00:30.799Z,94566.31
2019-05-21T20:03:01.733Z,94571.80
2019-05-21T20:05:33.286Z,94574.95
2019-05-21T20:08:04.256Z,94580.20
2019-05-21T20:10:35.033Z,94569.16
2019-05-21T20:13:05.705Z,94571.54
2019-05-21T20:15:36.318Z,94579.14
2019-05-21T20:18:07.828Z,94574.15
2019-05-21T20:20:39.052Z,94576.77
2019-05-21T20:23:10.695Z,94578.36
2019-05-21T20:25:55.514Z,94574.94
2019-05-21T20:28:14.743Z,94564.97
2019-05-21T20:30:45.446Z,94563.12
2019-05-21T20:33:17.192Z,94565.25
2019-05-21T20:35:48.615Z,94555.52
2019-05-21T20:38:19.685Z,94554.75
2019-05-21T20:40:50.026Z,94554.76
2019-05-21T20:43:21.173Z,94560.80
2019-05-21T20:45:51.861Z,94559.73
2019-05-21T20:48:26.350Z,94568.13
2019-05-21T20:50:56.958Z,94562.62
2019-05-21T20:53:27.750Z,94563.98
2019-05-21T20:55:58.097Z,94564.72
2019-05-21T20:58:28.996Z,94569.70
2019-05-21T21:01:02.377Z,94562.62
2019-05-21T21:03:33.709Z,94560.53
2019-05-21T21:06:05.063Z,94566.34
2019-05-21T21:08:36.624Z,94563.45
2019-05-21T21:11:09.117Z,94565.00
2019-05-21T21:13:40.587Z,94559.73
2019-05-21T21:16:11.437Z,94565.52
2019-05-21T21:18:41.916Z,94570.77
2019-05-21T21:21:12.871Z,94562.66
2019-05-21T21:23:43.522Z,94578.31
2019-05-21T21:26:15.004Z,94586.45
2019-05-21T21:28:47.096Z,94580.47
2019-05-21T21:31:17.420Z,94584.20
2019-05-21T21:33:48.438Z,94577.58
2019-05-21T21:36:18.875Z,94575.73
2019-05-21T21:38:49.493Z,94579.13
2019-05-21T21:41:21.358Z,94579.73
2019-05-21T21:43:51.598Z,94580.11
2019-05-21T21:46:21.925Z,94574.75
2019-05-21T21:48:52.475Z,94581.13
2019-05-21T21:51:23.193Z,94578.03
2019-05-21T21:53:54.163Z,94588.91
2019-05-21T21:56:24.974Z,94591.21
2019-05-21T21:58:55.437Z,94599.13
2019-05-21T22:01:43.479Z,94594.48
2019-05-21T22:04:18.375Z,94601.02
2019-05-21T22:06:50.988Z,94598.20
2019-05-21T22:09:34.850Z,94598.89
2019-05-21T22:12:06.490Z,94610.11
2019-05-21T22:14:49.599Z,94609.59
2019-05-21T22:17:11.911Z,94606.22
2019-05-21T22:19:42.275Z,94605.88
2019-05-21T22:22:13.421Z,94610.80
2019-05-21T22:24:43.745Z,94603.06
2019-05-21T22:27:14.066Z,94603.81
2019-05-21T22:29:45.633Z,94604.81
2019-05-21T22:32:16.978Z,94607.83
2019-05-21T22:34:47.285Z,94600.69
2019-05-21T22:37:22.333Z,94593.23
2019-05-21T22:39:53.432Z,94588.05
2019-05-21T22:42:24.948Z,94590.10
2019-05-21T22:45:07.533Z,94598.38
2019-05-21T22:47:27.834Z,94597.58
2019-05-21T22:49:58.129Z,94595.20
2019-05-21T22:52:28.720Z,94598.78
2019-05-21T22:54:59.375Z,94587.27
2019-05-21T22:57:29.722Z,94590.53
2019-05-21T23:00:00.066Z,94587.09
2019-05-21T23:02:33.722Z,94586.70
2019-05-21T23:05:04.237Z,94590.62
2019-05-21T23:07:34.813Z,94592.45
2019-05-21T23:10:06.323Z,94593.28
2019-05-21T23:12:37.070Z,94594.84
2019-05-21T23:15:23.716Z,94592.44
2019-05-21T23:17:42.980Z,94589.27
2019-05-21T23:20:33.978Z,94592.11
2019-05-21T23:23:06.103Z,94589.56
2019-05-21T23:25:38.687Z,94592.95
2019-05-21T23:28:10.118Z,94591.13
2019-05-21T23:30:40.919Z,94589.67
2019-05-21T23:33:13.148Z,94582.45
2019-05-21T23:35:43.811Z,94586.84
2019-05-21T23:38:16.640Z,94584.47
2019-05-21T23:40:48.630Z,94582.64
2019-05-21T23:43:19.530Z,94583.42
2019-05-21T23:45:49.825Z,94579.19
2019-05-21T23:48:20.942Z,94583.60
2019-05-21T23:50:51.707Z,94580.53
2019-05-21T23:53:22.448Z,94589.85
2019-05-21T23:55:52.761Z,94591.88
2019-05-21T23:58:23.943Z,94596.65
